createdAt,value
2019-04-03T04:00:59.778Z,0.00
2019-04-03T04:01:57.921Z,0.00
2019-04-03T04:02:58.096Z,0.00
2019-04-03T04:03:58.320Z,0.00
2019-04-03T04:04:58.441Z,0.00
2019-04-03T04:05:58.996Z,0.00
2019-04-03T04:07:02.225Z,0.00
2019-04-03T04:07:58.981Z,0.00
2019-04-03T04:08:59.126Z,0.00
2019-04-03T04:09:59.299Z,0.00
2019-04-03T04:10:59.982Z,0.00
2019-04-03T04:11:59.922Z,0.00
2019-04-03T04:13:00.006Z,0.00
2019-04-03T04:13:59.985Z,0.00
2019-04-03T04:15:00.161Z,0.00
2019-04-03T04:16:03.918Z,0.00
2019-04-03T04:17:00.503Z,0.00
2019-04-03T04:18:00.672Z,0.00
2019-04-03T04:19:01.012Z,0.00
2019-04-03T04:20:05.225Z,0.00
2019-04-03T04:21:01.639Z,0.00
2019-04-03T04:22:01.362Z,0.00
2019-04-03T04:23:01.826Z,0.00
2019-04-03T04:24:01.935Z,0.00
2019-04-03T04:25:01.970Z,0.00
2019-04-03T04:26:02.521Z,0.00
2019-04-03T04:27:03.202Z,0.00
2019-04-03T04:28:02.417Z,0.00
2019-04-03T04:29:02.583Z,0.00
2019-04-03T04:30:02.871Z,0.00
2019-04-03T04:31:02.925Z,0.00
2019-04-03T04:32:03.101Z,0.00
2019-04-03T04:33:03.271Z,0.00
2019-04-03T04:34:03.445Z,0.00
2019-04-03T04:35:03.649Z,0.00
2019-04-03T04:36:03.787Z,0.00
2019-04-03T04:37:04.030Z,0.00
2019-04-03T04:38:04.140Z,0.00
2019-04-03T04:39:04.326Z,0.00
2019-04-03T04:40:04.469Z,0.00
2019-04-03T04:41:04.818Z,0.00
2019-04-03T04:42:04.815Z,0.00
2019-04-03T04:43:07.458Z,0.00
2019-04-03T04:44:05.157Z,0.00
2019-04-03T04:45:05.332Z,0.00
2019-04-03T04:46:05.502Z,0.00
2019-04-03T04:47:05.674Z,0.00
2019-04-03T04:48:05.844Z,0.00
2019-04-03T04:49:06.027Z,0.00
2019-04-03T04:50:06.411Z,0.00
2019-04-03T04:51:06.373Z,0.00
2019-04-03T04:52:06.693Z,0.00
2019-04-03T04:53:06.716Z,0.00
2019-04-03T04:54:06.890Z,0.00
2019-04-03T04:55:07.061Z,0.00
2019-04-03T04:56:07.428Z,0.00
2019-04-03T04:57:08.888Z,0.00
2019-04-03T04:58:07.584Z,5.63
2019-04-03T04:59:07.918Z,5.63
2019-04-03T05:00:07.927Z,5.63
2019-04-03T05:01:08.102Z,5.63
2019-04-03T05:02:08.273Z,5.63
2019-04-03T05:03:08.738Z,5.63
2019-04-03T05:04:08.615Z,5.63
2019-04-03T05:05:09.215Z,5.63
2019-04-03T05:06:09.010Z,11.25
2019-04-03T05:07:09.337Z,11.25
2019-04-03T05:08:09.305Z,11.25
2019-04-03T05:09:09.476Z,11.25
2019-04-03T05:10:09.647Z,11.25
2019-04-03T05:11:09.819Z,11.25
2019-04-03T05:12:10.355Z,11.25
2019-04-03T05:13:10.161Z,16.88
2019-04-03T05:14:10.334Z,16.88
2019-04-03T05:15:10.506Z,16.88
2019-04-03T05:16:10.677Z,16.88
2019-04-03T05:17:10.980Z,16.88
2019-04-03T05:18:11.079Z,22.50
2019-04-03T05:19:17.895Z,22.50
2019-04-03T05:20:11.366Z,22.50
2019-04-03T05:21:11.536Z,22.50
2019-04-03T05:22:11.708Z,22.50
2019-04-03T05:23:11.879Z,22.50
2019-04-03T05:24:13.711Z,22.50
2019-04-03T05:25:12.227Z,22.50
2019-04-03T05:26:12.398Z,22.50
2019-04-03T05:27:12.571Z,22.50
2019-04-03T05:28:12.743Z,28.13
2019-04-03T05:29:12.914Z,28.13
2019-04-03T05:30:13.106Z,28.13
2019-04-03T05:31:13.279Z,28.13
2019-04-03T05:32:13.451Z,28.13
2019-04-03T05:33:13.679Z,28.13
2019-04-03T05:34:14.085Z,28.13
2019-04-03T05:35:14.942Z,33.75
2019-04-03T05:36:17.075Z,33.75
2019-04-03T05:37:14.315Z,33.75
2019-04-03T05:38:14.577Z,33.75
2019-04-03T05:39:14.743Z,33.75
2019-04-03T05:40:14.834Z,33.75
2019-04-03T05:41:15.039Z,33.75
2019-04-03T05:42:15.178Z,33.75
2019-04-03T05:43:15.352Z,33.75
2019-04-03T05:44:15.521Z,39.38
2019-04-03T05:45:15.790Z,39.38
2019-04-03T05:46:16.766Z,39.38
2019-04-03T05:47:16.052Z,39.38
2019-04-03T05:48:17.658Z,45.00
2019-04-03T05:49:18.611Z,45.00
2019-04-03T05:50:16.612Z,45.00
2019-04-03T05:51:16.923Z,45.00
2019-04-03T05:52:17.101Z,45.00
2019-04-03T05:53:17.080Z,45.00
2019-04-03T05:54:17.252Z,45.00
2019-04-03T05:55:17.434Z,45.00
2019-04-03T05:56:17.599Z,45.00
2019-04-03T05:57:17.770Z,45.00
2019-04-03T05:58:17.952Z,45.00
2019-04-03T05:59:18.125Z,50.63
2019-04-03T06:00:18.402Z,56.25
2019-04-03T06:01:18.474Z,56.25
2019-04-03T06:02:21.377Z,56.25
2019-04-03T06:03:18.983Z,56.25
2019-04-03T06:04:18.985Z,50.63
2019-04-03T06:05:19.601Z,50.63
2019-04-03T06:06:19.329Z,50.63
2019-04-03T06:07:19.501Z,45.00
2019-04-03T06:08:20.031Z,45.00
2019-04-03T06:09:20.086Z,45.00
2019-04-03T06:10:20.025Z,50.63
2019-04-03T06:11:20.841Z,50.63
2019-04-03T06:12:20.367Z,56.25
2019-04-03T06:13:20.550Z,67.50
2019-04-03T06:14:23.090Z,73.13
2019-04-03T06:15:22.055Z,84.38
2019-04-03T06:16:23.419Z,95.63
2019-04-03T06:17:21.228Z,101.25
2019-04-03T06:18:21.397Z,106.88
2019-04-03T06:19:21.571Z,106.88
2019-04-03T06:20:21.751Z,112.50
2019-04-03T06:21:21.923Z,118.13
2019-04-03T06:22:22.195Z,123.75
2019-04-03T06:23:22.242Z,129.38
2019-04-03T06:24:24.406Z,129.38
2019-04-03T06:25:22.990Z,129.38
2019-04-03T06:26:22.782Z,129.38
2019-04-03T06:27:22.942Z,129.38
2019-04-03T06:28:23.107Z,129.38
2019-04-03T06:29:23.487Z,129.38
2019-04-03T06:30:25.030Z,129.38
2019-04-03T06:31:24.347Z,123.75
2019-04-03T06:32:24.928Z,123.75
2019-04-03T06:33:23.977Z,123.75
2019-04-03T06:34:24.152Z,118.13
2019-04-03T06:35:24.321Z,118.13
2019-04-03T06:36:24.506Z,112.50
2019-04-03T06:37:24.669Z,106.88
2019-04-03T06:38:25.215Z,101.25
2019-04-03T06:39:30.461Z,101.25
2019-04-03T06:40:25.346Z,101.25
2019-04-03T06:41:25.353Z,101.25
2019-04-03T06:42:25.525Z,101.25
2019-04-03T06:43:25.700Z,101.25
2019-04-03T06:44:26.120Z,95.63
2019-04-03T06:45:27.021Z,95.63
2019-04-03T06:46:28.454Z,90.00
2019-04-03T06:47:26.402Z,84.38
2019-04-03T06:48:26.574Z,78.75
2019-04-03T06:49:26.755Z,73.13
2019-04-03T06:50:26.922Z,73.13
2019-04-03T06:51:27.093Z,73.13
2019-04-03T06:52:27.509Z,73.13
2019-04-03T06:53:28.680Z,78.75
2019-04-03T06:54:27.819Z,78.75
2019-04-03T06:55:27.954Z,84.38
2019-04-03T06:56:28.039Z,84.38
2019-04-03T06:57:28.142Z,90.00
2019-04-03T06:58:37.361Z,95.63
2019-04-03T06:59:28.483Z,101.25
2019-04-03T07:00:28.871Z,106.88
2019-04-03T07:01:28.827Z,106.88
2019-04-03T07:02:31.420Z,118.13
2019-04-03T07:03:29.173Z,129.38
2019-04-03T07:04:29.348Z,151.88
2019-04-03T07:05:29.519Z,168.75
2019-04-03T07:06:29.690Z,180.00
2019-04-03T07:07:34.136Z,185.63
2019-04-03T07:08:34.850Z,191.25
2019-04-03T07:09:35.602Z,191.25
2019-04-03T07:10:30.388Z,196.88
2019-04-03T07:11:30.561Z,191.25
2019-04-03T07:12:30.778Z,191.25
2019-04-03T07:13:30.905Z,185.63
2019-04-03T07:14:31.133Z,180.00
2019-04-03T07:15:31.248Z,174.38
2019-04-03T07:16:31.434Z,163.13
2019-04-03T07:17:32.839Z,157.50
2019-04-03T07:18:31.762Z,157.50
2019-04-03T07:19:32.180Z,163.13
2019-04-03T07:20:32.107Z,168.75
2019-04-03T07:21:32.467Z,168.75
2019-04-03T07:22:32.454Z,174.38
2019-04-03T07:23:32.678Z,180.00
2019-04-03T07:24:32.897Z,180.00
2019-04-03T07:25:33.930Z,185.63
2019-04-03T07:26:35.131Z,191.25
2019-04-03T07:27:34.895Z,196.88
2019-04-03T07:28:33.490Z,208.13
2019-04-03T07:29:33.974Z,225.00
2019-04-03T07:30:33.845Z,241.88
2019-04-03T07:31:34.016Z,258.75
2019-04-03T07:32:34.188Z,264.38
2019-04-03T07:33:34.360Z,270.00
2019-04-03T07:34:34.674Z,275.63
2019-04-03T07:35:34.950Z,281.25
2019-04-03T07:36:34.877Z,286.88
2019-04-03T07:37:35.090Z,275.63
2019-04-03T07:38:35.455Z,264.38
2019-04-03T07:39:35.397Z,264.38
2019-04-03T07:40:35.568Z,258.75
2019-04-03T07:41:35.739Z,258.75
2019-04-03T07:42:35.914Z,264.38
2019-04-03T07:43:36.094Z,281.25
2019-04-03T07:44:36.261Z,292.50
2019-04-03T07:45:36.430Z,309.38
2019-04-03T07:46:36.605Z,309.38
2019-04-03T07:47:36.782Z,309.38
2019-04-03T07:48:37.954Z,309.38
2019-04-03T07:49:37.689Z,309.38
2019-04-03T07:50:37.292Z,309.38
2019-04-03T07:51:37.470Z,315.00
2019-04-03T07:52:37.640Z,320.63
2019-04-03T07:53:37.809Z,331.88
2019-04-03T07:54:38.130Z,337.50
2019-04-03T07:55:38.158Z,343.13
2019-04-03T07:56:38.343Z,348.75
2019-04-03T07:57:40.929Z,354.38
2019-04-03T07:58:38.678Z,354.38
2019-04-03T07:59:38.848Z,360.00
2019-04-03T08:00:39.269Z,360.00
2019-04-03T08:01:41.306Z,360.00
2019-04-03T08:02:39.364Z,354.38
2019-04-03T08:03:39.539Z,354.38
2019-04-03T08:04:39.972Z,354.38
2019-04-03T08:05:39.888Z,360.00
2019-04-03T08:06:40.211Z,371.25
2019-04-03T08:07:40.440Z,376.88
2019-04-03T08:08:40.399Z,382.50
2019-04-03T08:09:40.570Z,393.75
2019-04-03T08:10:40.744Z,405.00
2019-04-03T08:11:41.038Z,421.88
2019-04-03T08:12:41.088Z,433.13
2019-04-03T08:13:41.319Z,450.00
2019-04-03T08:14:42.002Z,461.25
2019-04-03T08:15:43.889Z,466.88
2019-04-03T08:16:43.196Z,466.88
2019-04-03T08:17:41.984Z,466.88
2019-04-03T08:18:42.125Z,455.63
2019-04-03T08:19:44.933Z,444.38
2019-04-03T08:20:42.472Z,427.50
2019-04-03T08:21:42.645Z,416.25
2019-04-03T08:22:42.819Z,421.88
2019-04-03T08:23:42.992Z,438.75
2019-04-03T08:24:43.165Z,444.38
2019-04-03T08:25:47.142Z,444.38
2019-04-03T08:26:43.512Z,444.38
2019-04-03T08:27:43.837Z,444.38
2019-04-03T08:28:43.861Z,444.38
2019-04-03T08:29:44.032Z,455.63
2019-04-03T08:30:44.248Z,461.25
2019-04-03T08:31:48.264Z,461.25
2019-04-03T08:32:47.370Z,461.25
2019-04-03T08:33:44.726Z,438.75
2019-04-03T08:34:44.903Z,421.88
2019-04-03T08:35:45.320Z,410.63
2019-04-03T08:36:45.244Z,427.50
2019-04-03T08:37:45.644Z,427.50
2019-04-03T08:38:45.772Z,433.13
2019-04-03T08:39:48.436Z,433.13
2019-04-03T08:40:45.943Z,433.13
2019-04-03T08:41:46.396Z,433.13
2019-04-03T08:42:46.321Z,427.50
2019-04-03T08:43:46.440Z,416.25
2019-04-03T08:44:46.615Z,405.00
2019-04-03T08:45:46.790Z,399.38
2019-04-03T08:46:46.965Z,393.75
2019-04-03T08:47:47.139Z,388.13
2019-04-03T08:48:47.431Z,393.75
2019-04-03T08:49:47.660Z,399.38
2019-04-03T08:50:47.654Z,405.00
2019-04-03T08:51:47.830Z,421.88
2019-04-03T08:52:48.004Z,433.13
2019-04-03T08:53:48.198Z,438.75
2019-04-03T08:54:48.349Z,438.75
2019-04-03T08:55:48.611Z,421.88
2019-04-03T08:56:49.429Z,405.00
2019-04-03T08:57:51.891Z,388.13
2019-04-03T08:58:49.265Z,371.25
2019-04-03T08:59:49.550Z,360.00
2019-04-03T09:00:49.389Z,348.75
2019-04-03T09:01:49.559Z,343.13
2019-04-03T09:02:49.734Z,331.88
2019-04-03T09:03:49.910Z,326.25
2019-04-03T09:04:50.084Z,326.25
2019-04-03T09:05:51.050Z,326.25
2019-04-03T09:06:53.107Z,337.50
2019-04-03T09:07:50.801Z,343.13
2019-04-03T09:08:50.780Z,354.38
2019-04-03T09:09:51.029Z,365.63
2019-04-03T09:10:51.397Z,371.25
2019-04-03T09:11:51.296Z,376.88
2019-04-03T09:12:51.469Z,382.50
2019-04-03T09:13:54.373Z,382.50
2019-04-03T09:14:51.818Z,388.13
2019-04-03T09:15:52.191Z,393.75
2019-04-03T09:16:52.174Z,399.38
2019-04-03T09:17:52.341Z,410.63
2019-04-03T09:18:52.518Z,405.00
2019-04-03T09:19:52.965Z,405.00
2019-04-03T09:20:52.867Z,410.63
2019-04-03T09:21:53.086Z,410.63
2019-04-03T09:22:54.391Z,405.00
2019-04-03T09:23:55.183Z,393.75
2019-04-03T09:24:53.560Z,382.50
2019-04-03T09:25:54.004Z,371.25
2019-04-03T09:26:54.231Z,371.25
2019-04-03T09:27:54.082Z,376.88
2019-04-03T09:28:54.254Z,382.50
2019-04-03T09:29:54.428Z,388.13
2019-04-03T09:30:54.600Z,393.75
2019-04-03T09:31:56.233Z,405.00
2019-04-03T09:32:55.223Z,421.88
2019-04-03T09:33:56.984Z,438.75
2019-04-03T09:34:55.295Z,455.63
2019-04-03T09:35:58.498Z,472.50
2019-04-03T09:36:55.646Z,483.75
2019-04-03T09:37:55.896Z,495.00
2019-04-03T09:38:55.990Z,511.88
2019-04-03T09:39:56.165Z,528.75
2019-04-03T09:40:56.339Z,568.13
2019-04-03T09:41:56.516Z,618.75
2019-04-03T09:42:56.688Z,658.13
2019-04-03T09:43:56.862Z,697.50
2019-04-03T09:44:57.393Z,753.75
2019-04-03T09:45:59.397Z,815.63
2019-04-03T09:46:57.444Z,871.88
2019-04-03T09:47:57.572Z,905.63
2019-04-03T09:48:57.997Z,900.00
2019-04-03T09:49:57.956Z,916.88
2019-04-03T09:50:58.096Z,905.63
2019-04-03T09:51:58.267Z,883.13
2019-04-03T09:52:58.443Z,877.50
2019-04-03T09:53:58.617Z,894.38
2019-04-03T09:55:00.292Z,928.13
2019-04-03T09:55:59.085Z,1012.50
2019-04-03T09:57:04.474Z,990.00
2019-04-03T09:57:59.313Z,1001.25
2019-04-03T09:58:59.485Z,995.63
2019-04-03T09:59:59.662Z,1102.50
2019-04-03T10:00:59.837Z,939.38
2019-04-03T10:02:00.174Z,877.50
2019-04-03T10:03:00.187Z,900.00
2019-04-03T10:04:00.363Z,967.50
2019-04-03T10:05:00.536Z,1001.25
2019-04-03T10:06:00.853Z,995.63
2019-04-03T10:07:02.028Z,810.00
2019-04-03T10:08:01.059Z,652.50
2019-04-03T10:09:01.231Z,506.25
2019-04-03T10:10:01.832Z,410.63
2019-04-03T10:11:01.583Z,382.50
2019-04-03T10:12:02.044Z,388.13
2019-04-03T10:13:02.080Z,388.13
2019-04-03T10:14:02.109Z,427.50
2019-04-03T10:15:02.281Z,523.13
2019-04-03T10:16:03.957Z,641.25
2019-04-03T10:17:03.900Z,753.75
2019-04-03T10:18:03.054Z,849.38
2019-04-03T10:19:02.979Z,905.63
2019-04-03T10:20:03.155Z,995.63
2019-04-03T10:21:03.349Z,1068.75
2019-04-03T10:22:03.511Z,1119.38
2019-04-03T10:23:03.676Z,1400.63
2019-04-03T10:24:03.849Z,1153.13
2019-04-03T10:25:05.499Z,1530.00
2019-04-03T10:26:05.921Z,1428.75
2019-04-03T10:27:04.373Z,1271.25
2019-04-03T10:28:04.547Z,961.88
2019-04-03T10:29:04.854Z,686.25
2019-04-03T10:30:05.225Z,495.00
2019-04-03T10:31:05.070Z,376.88
2019-04-03T10:32:05.248Z,348.75
2019-04-03T10:33:05.636Z,320.63
2019-04-03T10:34:05.596Z,286.88
2019-04-03T10:35:07.290Z,258.75
2019-04-03T10:36:05.945Z,236.25
2019-04-03T10:37:06.127Z,230.63
2019-04-03T10:38:06.340Z,241.88
2019-04-03T10:39:06.472Z,275.63
2019-04-03T10:40:06.904Z,320.63
2019-04-03T10:41:06.818Z,376.88
2019-04-03T10:42:06.996Z,410.63
2019-04-03T10:43:07.163Z,416.25
2019-04-03T10:44:09.292Z,416.25
2019-04-03T10:45:07.512Z,427.50
2019-04-03T10:46:07.690Z,444.38
2019-04-03T10:47:07.952Z,483.75
2019-04-03T10:48:08.038Z,511.88
2019-04-03T10:49:08.503Z,506.25
2019-04-03T10:50:08.388Z,466.88
2019-04-03T10:51:09.301Z,450.00
2019-04-03T10:52:08.733Z,438.75
2019-04-03T10:53:08.908Z,444.38
2019-04-03T10:54:09.083Z,405.00
2019-04-03T10:55:09.261Z,388.13
2019-04-03T10:56:09.429Z,399.38
2019-04-03T10:57:09.711Z,405.00
2019-04-03T10:58:09.914Z,388.13
2019-04-03T10:59:12.993Z,376.88
2019-04-03T11:00:10.216Z,360.00
2019-04-03T11:01:10.298Z,354.38
2019-04-03T11:02:10.469Z,376.88
2019-04-03T11:03:10.889Z,416.25
2019-04-03T11:04:11.079Z,455.63
2019-04-03T11:05:10.996Z,483.75
2019-04-03T11:06:11.308Z,506.25
2019-04-03T11:07:11.341Z,472.50
2019-04-03T11:08:11.540Z,438.75
2019-04-03T11:09:11.689Z,466.88
2019-04-03T11:10:11.960Z,500.63
2019-04-03T11:11:12.033Z,545.63
2019-04-03T11:12:12.582Z,590.63
2019-04-03T11:13:12.380Z,596.25
2019-04-03T11:14:12.553Z,551.25
2019-04-03T11:15:12.820Z,478.13
2019-04-03T11:16:13.181Z,405.00
2019-04-03T11:17:13.348Z,405.00
2019-04-03T11:18:13.248Z,478.13
2019-04-03T11:19:13.420Z,506.25
2019-04-03T11:20:14.061Z,489.38
2019-04-03T11:21:13.766Z,483.75
2019-04-03T11:22:16.267Z,438.75
2019-04-03T11:23:14.202Z,438.75
2019-04-03T11:24:14.675Z,478.13
2019-04-03T11:25:15.937Z,528.75
2019-04-03T11:26:17.644Z,590.63
2019-04-03T11:27:15.298Z,618.75
2019-04-03T11:28:14.993Z,579.38
2019-04-03T11:29:15.192Z,601.88
2019-04-03T11:30:19.032Z,736.88
2019-04-03T11:31:25.940Z,596.25
2019-04-03T11:32:15.678Z,427.50
2019-04-03T11:33:15.936Z,343.13
2019-04-03T11:34:18.028Z,337.50
2019-04-03T11:35:16.407Z,371.25
2019-04-03T11:36:16.543Z,410.63
2019-04-03T11:37:16.552Z,433.13
2019-04-03T11:38:26.286Z,444.38
2019-04-03T11:39:16.922Z,444.38
2019-04-03T11:40:18.150Z,421.88
2019-04-03T11:41:19.596Z,393.75
2019-04-03T11:42:24.040Z,376.88
2019-04-03T11:43:17.595Z,365.63
2019-04-03T11:44:17.856Z,348.75
2019-04-03T11:45:18.167Z,337.50
2019-04-03T11:46:18.114Z,326.25
2019-04-03T11:47:18.289Z,303.75
2019-04-03T11:48:18.467Z,286.88
2019-04-03T11:49:20.038Z,264.38
2019-04-03T11:50:18.809Z,258.75
2019-04-03T11:51:18.983Z,258.75
2019-04-03T11:52:19.158Z,264.38
2019-04-03T11:53:19.329Z,258.75
2019-04-03T11:54:19.588Z,253.13
2019-04-03T11:55:19.889Z,241.88
2019-04-03T11:56:19.857Z,230.63
2019-04-03T11:57:20.023Z,230.63
2019-04-03T11:58:21.314Z,247.50
2019-04-03T11:59:22.711Z,264.38
2019-04-03T12:00:20.893Z,281.25
2019-04-03T12:01:20.786Z,303.75
2019-04-03T12:02:20.894Z,337.50
2019-04-03T12:03:21.067Z,371.25
2019-04-03T12:04:21.284Z,405.00
2019-04-03T12:05:21.635Z,483.75
2019-04-03T12:06:21.958Z,579.38
2019-04-03T12:07:22.873Z,641.25
2019-04-03T12:08:21.931Z,686.25
2019-04-03T12:09:22.107Z,781.88
2019-04-03T12:10:24.899Z,911.25
2019-04-03T12:11:22.682Z,1035.00
2019-04-03T12:12:22.651Z,1158.75
2019-04-03T12:13:22.870Z,1389.38
2019-04-03T12:14:22.973Z,2261.25
2019-04-03T12:15:23.144Z,2261.25
2019-04-03T12:16:25.222Z,2401.88
2019-04-03T12:17:23.492Z,3206.25
2019-04-03T12:18:24.039Z,2874.38
2019-04-03T12:19:23.926Z,3195.00
2019-04-03T12:20:24.054Z,1811.25
2019-04-03T12:21:24.506Z,1957.50
2019-04-03T12:22:24.360Z,3628.13
2019-04-03T12:23:26.913Z,3420.00
2019-04-03T12:24:25.109Z,3290.63
2019-04-03T12:25:25.237Z,3352.50
2019-04-03T12:26:25.365Z,2795.63
2019-04-03T12:27:25.246Z,1996.88
2019-04-03T12:28:25.414Z,1760.63
2019-04-03T12:29:25.591Z,2210.63
2019-04-03T12:30:26.857Z,2913.75
2019-04-03T12:31:25.944Z,4421.25
2019-04-03T12:32:36.641Z,2497.50
2019-04-03T12:33:26.568Z,4218.75
2019-04-03T12:34:26.461Z,4179.38
2019-04-03T12:35:26.639Z,1513.13
2019-04-03T12:36:27.810Z,2070.00
2019-04-03T12:37:26.991Z,1850.63
2019-04-03T12:38:27.173Z,4691.25
2019-04-03T12:39:28.095Z,1755.00
2019-04-03T12:40:27.524Z,1783.13
2019-04-03T12:41:28.011Z,3678.75
2019-04-03T12:42:27.901Z,2503.13
2019-04-03T12:43:28.050Z,3903.75
2019-04-03T12:44:28.226Z,4831.88
2019-04-03T12:45:28.405Z,2036.25
2019-04-03T12:46:28.580Z,2851.88
2019-04-03T12:47:28.755Z,4044.38
2019-04-03T12:48:29.244Z,2064.38
2019-04-03T12:49:29.108Z,2036.25
2019-04-03T12:50:29.286Z,2491.88
2019-04-03T12:51:31.570Z,1378.13
2019-04-03T12:52:29.763Z,1254.38
2019-04-03T12:53:30.242Z,1243.13
2019-04-03T12:54:30.214Z,967.50
2019-04-03T12:55:30.296Z,1012.50
2019-04-03T12:56:30.953Z,1215.00
2019-04-03T12:57:32.390Z,1147.50
2019-04-03T12:58:31.084Z,1085.63
2019-04-03T12:59:30.882Z,1192.50
2019-04-03T13:00:31.057Z,1170.00
2019-04-03T13:01:31.233Z,1170.00
2019-04-03T13:02:31.519Z,1175.63
2019-04-03T13:03:31.965Z,1226.25
2019-04-03T13:04:32.807Z,1153.13
2019-04-03T13:05:32.278Z,1074.38
2019-04-03T13:06:32.522Z,1108.13
2019-04-03T13:07:32.853Z,1265.63
2019-04-03T13:08:32.863Z,2531.25
2019-04-03T13:09:33.025Z,3195.00
2019-04-03T13:10:40.974Z,1676.25
2019-04-03T13:11:33.970Z,1383.75
2019-04-03T13:12:33.769Z,1411.88
2019-04-03T13:13:33.732Z,1080.00
2019-04-03T13:14:33.579Z,855.00
2019-04-03T13:15:36.240Z,866.25
2019-04-03T13:16:33.877Z,832.50
2019-04-03T13:17:34.050Z,810.00
2019-04-03T13:18:34.225Z,776.25
2019-04-03T13:19:34.399Z,798.75
2019-04-03T13:20:36.673Z,793.13
2019-04-03T13:21:34.975Z,776.25
2019-04-03T13:22:34.926Z,759.38
2019-04-03T13:23:35.570Z,967.50
2019-04-03T13:24:35.275Z,866.25
2019-04-03T13:25:35.450Z,765.00
2019-04-03T13:26:35.928Z,725.63
2019-04-03T13:27:36.125Z,810.00
2019-04-03T13:28:39.488Z,832.50
2019-04-03T13:29:38.313Z,815.63
2019-04-03T13:30:36.324Z,686.25
2019-04-03T13:31:36.494Z,607.50
2019-04-03T13:32:37.057Z,630.00
2019-04-03T13:33:38.724Z,630.00
2019-04-03T13:34:37.203Z,675.00
2019-04-03T13:35:37.193Z,742.50
2019-04-03T13:36:37.735Z,888.75
2019-04-03T13:37:37.717Z,1018.13
2019-04-03T13:38:38.138Z,984.38
2019-04-03T13:39:38.305Z,990.00
2019-04-03T13:40:39.038Z,1186.88
2019-04-03T13:41:39.968Z,1389.38
2019-04-03T13:42:38.681Z,1248.75
2019-04-03T13:43:38.992Z,1265.63
2019-04-03T13:44:38.768Z,1023.75
2019-04-03T13:45:39.039Z,871.88
2019-04-03T13:46:39.116Z,871.88
2019-04-03T13:47:41.500Z,826.88
2019-04-03T13:48:39.693Z,793.13
2019-04-03T13:49:39.920Z,798.75
2019-04-03T13:50:40.152Z,804.38
2019-04-03T13:51:39.988Z,736.88
2019-04-03T13:52:43.605Z,686.25
2019-04-03T13:53:40.336Z,753.75
2019-04-03T13:54:40.511Z,883.13
2019-04-03T13:55:40.846Z,1141.88
2019-04-03T13:56:43.104Z,1350.00
2019-04-03T13:57:41.033Z,1456.88
2019-04-03T13:58:41.645Z,1597.50
2019-04-03T13:59:41.527Z,1299.38
2019-04-03T14:00:41.560Z,1951.88
2019-04-03T14:01:41.817Z,2778.75
2019-04-03T14:02:45.009Z,3121.88
2019-04-03T14:03:42.124Z,3583.13
2019-04-03T14:04:42.348Z,1563.75
2019-04-03T14:05:43.453Z,3189.38
2019-04-03T14:06:42.975Z,3273.75
2019-04-03T14:07:42.794Z,3538.13
2019-04-03T14:08:45.088Z,3695.63
2019-04-03T14:09:43.143Z,3706.88
2019-04-03T14:10:43.319Z,3403.13
2019-04-03T14:11:43.499Z,3240.00
2019-04-03T14:12:45.182Z,1974.38
2019-04-03T14:13:44.428Z,3178.13
2019-04-03T14:14:45.243Z,3380.63
2019-04-03T14:15:44.199Z,3054.38
2019-04-03T14:16:44.403Z,2086.88
2019-04-03T14:17:55.317Z,1591.88
2019-04-03T14:18:44.731Z,1485.00
2019-04-03T14:19:48.429Z,1631.25
2019-04-03T14:20:45.089Z,1552.50
2019-04-03T14:21:45.264Z,1670.63
2019-04-03T14:22:45.447Z,2244.38
2019-04-03T14:23:45.624Z,1800.00
2019-04-03T14:24:50.990Z,2126.25
2019-04-03T14:25:45.976Z,3577.50
2019-04-03T14:26:46.551Z,3037.50
2019-04-03T14:27:46.497Z,2626.88
2019-04-03T14:28:46.513Z,1389.38
2019-04-03T14:29:46.689Z,933.75
2019-04-03T14:30:46.961Z,832.50
2019-04-03T14:31:48.619Z,736.88
2019-04-03T14:32:47.494Z,697.50
2019-04-03T14:33:47.765Z,798.75
2019-04-03T14:34:47.913Z,815.63
2019-04-03T14:35:52.641Z,810.00
2019-04-03T14:36:50.127Z,753.75
2019-04-03T14:37:48.131Z,703.13
2019-04-03T14:38:48.300Z,669.38
2019-04-03T14:39:48.722Z,641.25
2019-04-03T14:40:48.664Z,646.88
2019-04-03T14:41:48.901Z,759.38
2019-04-03T14:42:49.045Z,849.38
2019-04-03T14:43:49.231Z,810.00
2019-04-03T14:44:49.408Z,1350.00
2019-04-03T14:45:49.596Z,843.75
2019-04-03T14:46:50.646Z,793.13
2019-04-03T14:47:49.966Z,736.88
2019-04-03T14:48:50.484Z,765.00
2019-04-03T14:49:50.321Z,804.38
2019-04-03T14:50:50.806Z,905.63
2019-04-03T14:51:50.687Z,815.63
2019-04-03T14:52:50.853Z,793.13
2019-04-03T14:53:52.675Z,900.00
2019-04-03T14:54:51.617Z,1175.63
2019-04-03T14:55:51.380Z,1749.38
2019-04-03T14:56:51.558Z,2469.38
2019-04-03T14:57:53.776Z,2182.50
2019-04-03T14:58:51.905Z,2340.00
2019-04-03T14:59:52.093Z,2430.00
2019-04-03T15:00:52.257Z,1068.75
2019-04-03T15:01:52.822Z,922.50
2019-04-03T15:02:53.122Z,742.50
2019-04-03T15:03:52.781Z,731.25
2019-04-03T15:04:53.291Z,714.38
2019-04-03T15:05:53.463Z,551.25
2019-04-03T15:07:02.046Z,523.13
2019-04-03T15:07:53.909Z,562.50
2019-04-03T15:08:54.722Z,528.75
2019-04-03T15:09:53.833Z,506.25
2019-04-03T15:10:54.008Z,483.75
2019-04-03T15:11:54.604Z,483.75
2019-04-03T15:12:54.705Z,517.50
2019-04-03T15:13:54.534Z,1091.25
2019-04-03T15:14:55.600Z,585.00
2019-04-03T15:15:54.883Z,573.75
2019-04-03T15:16:55.206Z,635.63
2019-04-03T15:17:55.230Z,793.13
2019-04-03T15:18:55.766Z,2013.75
2019-04-03T15:19:56.700Z,1845.00
2019-04-03T15:20:55.759Z,1631.25
2019-04-03T15:21:57.956Z,1738.13
2019-04-03T15:22:56.461Z,1350.00
2019-04-03T15:23:56.584Z,1878.75
2019-04-03T15:24:56.458Z,1929.38
2019-04-03T15:25:56.757Z,1625.63
2019-04-03T15:26:56.821Z,1890.00
2019-04-03T15:27:58.695Z,736.88
2019-04-03T15:28:57.172Z,528.75
2019-04-03T15:29:57.729Z,343.13
2019-04-03T15:30:57.521Z,264.38
2019-04-03T15:31:58.057Z,219.38
2019-04-03T15:32:57.983Z,213.75
2019-04-03T15:33:58.253Z,219.38
2019-04-03T15:34:59.757Z,236.25
2019-04-03T15:35:58.695Z,247.50
2019-04-03T15:36:58.728Z,264.38
2019-04-03T15:37:58.749Z,281.25
2019-04-03T15:38:59.871Z,292.50
2019-04-03T15:39:59.284Z,309.38
2019-04-03T15:40:59.834Z,343.13
2019-04-03T15:41:59.736Z,388.13
2019-04-03T15:42:59.619Z,438.75
2019-04-03T15:43:59.794Z,523.13
2019-04-03T15:44:59.979Z,624.38
2019-04-03T15:46:00.156Z,697.50
2019-04-03T15:47:01.256Z,725.63
2019-04-03T15:48:00.493Z,714.38
2019-04-03T15:49:00.948Z,658.13
2019-04-03T15:50:00.840Z,635.63
2019-04-03T15:51:01.017Z,658.13
2019-04-03T15:52:01.557Z,680.63
2019-04-03T15:53:01.386Z,675.00
2019-04-03T15:54:01.551Z,601.88
2019-04-03T15:55:03.731Z,489.38
2019-04-03T15:56:01.917Z,433.13
2019-04-03T15:57:02.133Z,405.00
2019-04-03T15:58:02.722Z,399.38
2019-04-03T15:59:02.947Z,416.25
2019-04-03T16:00:03.552Z,444.38
2019-04-03T16:01:02.843Z,466.88
2019-04-03T16:02:03.030Z,478.13
2019-04-03T16:03:03.192Z,483.75
2019-04-03T16:04:03.429Z,523.13
2019-04-03T16:05:04.103Z,596.25
2019-04-03T16:06:04.724Z,793.13
2019-04-03T16:07:06.753Z,748.13
2019-04-03T16:08:04.166Z,776.25
2019-04-03T16:09:04.261Z,703.13
2019-04-03T16:10:04.845Z,697.50
2019-04-03T16:11:04.902Z,658.13
2019-04-03T16:12:06.276Z,573.75
2019-04-03T16:13:05.525Z,590.63
2019-04-03T16:14:05.191Z,590.63
2019-04-03T16:15:05.358Z,478.13
2019-04-03T16:16:05.534Z,450.00
2019-04-03T16:17:05.710Z,427.50
2019-04-03T16:18:07.698Z,421.88
2019-04-03T16:19:06.453Z,405.00
2019-04-03T16:20:06.237Z,405.00
2019-04-03T16:21:06.411Z,405.00
2019-04-03T16:22:06.925Z,393.75
2019-04-03T16:23:07.041Z,399.38
2019-04-03T16:24:11.255Z,399.38
2019-04-03T16:25:07.103Z,405.00
2019-04-03T16:26:07.282Z,410.63
2019-04-03T16:27:08.453Z,382.50
2019-04-03T16:28:07.632Z,376.88
2019-04-03T16:29:08.744Z,371.25
2019-04-03T16:30:08.342Z,365.63
2019-04-03T16:31:08.157Z,360.00
2019-04-03T16:32:08.336Z,360.00
2019-04-03T16:33:18.839Z,354.38
2019-04-03T16:34:12.172Z,360.00